Pagina principale
METAR-TAF:

METAR-TAF

Aeroporti :

Aeroporto di Genova-Sestri

Genova, Italia

latitudine: 44-25N, longitudine: 008-51E, altezza: 2 m

Osservazione

Il bollettino è stato emesso 21 minuti fa, alle 05:20 UTC
Vento 6 kt da nord/nord-est, variando fra ovest/nord-ovest e est/nord-est
Temperature 9°C
Umidità 76%
Pressione 1009 hPa
Visibilità 10 km o più
Poco nuvoloso ad un'altezza di 3000 ft

METAR: LIMJ 180520Z 02006KT 300V060 9999 FEW030 09/05 Q1009

Ora: 06:41 (05:41 UTC)

Previsione

Il bollettino è stato emesso 41 minuti fa, alle 05:00 UTC
Previsione valida dal 18 alle 06 UTC al 19 alle 06 UTC
Vento 15 kt da sud/sud-ovest
Visibilità 10 km o più
Nubi sparse ad un'altezza di 1500 ft
Nuvoloso ad un'altezza di 4000 ft
Evoluzione graduale
dal 18 alle 12 UTC al 18 alle 16 UTC
pioggia

TAF: LIMJ 180500Z 1806/1906 20015KT 9999 SCT015 BKN040 BECMG 1812/1816 RA

Osservazioni e previsioni meteorologiche di più di 4000 aeroporti (messaggi METAR e TAF).

Le stazioni disponibili sono rappresentate dai dischi gialli e rossi sulla carta.

Puntare il mouse per vedere il nome della stazione.

Clicca sopra per visualizzare le osservazioni e previsioni meteorologiche.

Per cambiare la mappa : fare clic sui pulsanti verdi con una croce nera per ingrandire, il pulsante verde con un trattino per diminuire, o sulla freccia verde per le mappe adiacenti.


METAR-TAF: